sensor_id;sensor_type;location;lat;lon;timestamp;P1;durP1;ratioP1;P2;durP2;ratioP2
62790;SDS011;48830;53.426;10.300;2023-03-16T00:01:41;8.20;;;2.70;;
62790;SDS011;48830;53.426;10.300;2023-03-16T00:04:06;8.90;;;3.03;;
62790;SDS011;48830;53.426;10.300;2023-03-16T00:06:32;8.17;;;2.97;;
62790;SDS011;48830;53.426;10.300;2023-03-16T00:08:58;7.30;;;2.90;;
62790;SDS011;48830;53.426;10.300;2023-03-16T00:11:24;6.17;;;2.67;;
62790;SDS011;48830;53.426;10.300;2023-03-16T00:13:50;7.33;;;2.83;;
62790;SDS011;48830;53.426;10.300;2023-03-16T00:16:16;9.77;;;2.97;;
62790;SDS011;48830;53.426;10.300;2023-03-16T00:18:42;9.50;;;2.90;;
62790;SDS011;48830;53.426;10.300;2023-03-16T00:21:08;7.07;;;3.07;;
62790;SDS011;48830;53.426;10.300;2023-03-16T00:23:34;8.17;;;2.80;;
62790;SDS011;48830;53.426;10.300;2023-03-16T00:26:02;8.23;;;3.00;;
62790;SDS011;48830;53.426;10.300;2023-03-16T00:28:30;8.43;;;2.90;;
62790;SDS011;48830;53.426;10.300;2023-03-16T00:31:05;7.80;;;2.83;;
62790;SDS011;48830;53.426;10.300;2023-03-16T00:33:32;7.07;;;2.93;;
62790;SDS011;48830;53.426;10.300;2023-03-16T00:36:04;7.27;;;2.90;;
62790;SDS011;48830;53.426;10.300;2023-03-16T00:38:34;6.73;;;2.63;;
62790;SDS011;48830;53.426;10.300;2023-03-16T00:41:05;7.83;;;3.00;;
62790;SDS011;48830;53.426;10.300;2023-03-16T00:43:32;8.27;;;3.10;;
62790;SDS011;48830;53.426;10.300;2023-03-16T00:46:09;6.57;;;3.03;;
62790;SDS011;48830;53.426;10.300;2023-03-16T00:48:36;6.70;;;2.70;;
62790;SDS011;48830;53.426;10.300;2023-03-16T00:51:05;9.47;;;3.20;;
62790;SDS011;48830;53.426;10.300;2023-03-16T00:53:33;7.37;;;3.07;;
62790;SDS011;48830;53.426;10.300;2023-03-16T00:56:00;6.73;;;2.60;;
62790;SDS011;48830;53.426;10.300;2023-03-16T00:58:30;7.97;;;2.97;;
62790;SDS011;48830;53.426;10.300;2023-03-16T01:01:06;9.77;;;3.30;;
62790;SDS011;48830;53.426;10.300;2023-03-16T01:03:33;7.57;;;3.10;;
62790;SDS011;48830;53.426;10.300;2023-03-16T01:06:17;5.37;;;2.50;;
62790;SDS011;48830;53.426;10.300;2023-03-16T01:08:44;9.57;;;3.30;;
62790;SDS011;48830;53.426;10.300;2023-03-16T01:11:11;7.67;;;2.80;;
62790;SDS011;48830;53.426;10.300;2023-03-16T01:13:40;7.73;;;2.77;;
62790;SDS011;48830;53.426;10.300;2023-03-16T01:16:07;6.30;;;2.93;;
62790;SDS011;48830;53.426;10.300;2023-03-16T01:18:33;7.03;;;3.20;;
62790;SDS011;48830;53.426;10.300;2023-03-16T01:21:02;5.77;;;2.93;;
62790;SDS011;48830;53.426;10.300;2023-03-16T01:23:30;7.30;;;3.00;;
62790;SDS011;48830;53.426;10.300;2023-03-16T01:25:56;6.30;;;2.73;;
62790;SDS011;48830;53.426;10.300;2023-03-16T01:28:24;8.27;;;2.93;;
62790;SDS011;48830;53.426;10.300;2023-03-16T01:30:51;7.03;;;3.10;;
62790;SDS011;48830;53.426;10.300;2023-03-16T01:33:22;8.30;;;3.10;;
62790;SDS011;48830;53.426;10.300;2023-03-16T01:35:59;9.67;;;3.40;;
62790;SDS011;48830;53.426;10.300;2023-03-16T01:38:44;6.20;;;2.93;;
62790;SDS011;48830;53.426;10.300;2023-03-16T01:41:10;7.47;;;3.13;;
62790;SDS011;48830;53.426;10.300;2023-03-16T01:43:37;7.37;;;3.00;;
62790;SDS011;48830;53.426;10.300;2023-03-16T01:48:32;9.73;;;2.97;;
62790;SDS011;48830;53.426;10.300;2023-03-16T01:51:04;10.30;;;3.43;;
62790;SDS011;48830;53.426;10.300;2023-03-16T01:53:34;9.83;;;3.17;;
62790;SDS011;48830;53.426;10.300;2023-03-16T01:56:01;5.57;;;2.80;;
62790;SDS011;48830;53.426;10.300;2023-03-16T01:58:32;6.93;;;2.93;;
62790;SDS011;48830;53.426;10.300;2023-03-16T02:00:59;6.70;;;2.80;;
62790;SDS011;48830;53.426;10.300;2023-03-16T02:03:25;9.97;;;2.73;;
62790;SDS011;48830;53.426;10.300;2023-03-16T02:06:05;7.67;;;2.87;;
62790;SDS011;48830;53.426;10.300;2023-03-16T02:08:44;8.80;;;2.90;;
62790;SDS011;48830;53.426;10.300;2023-03-16T02:11:12;7.10;;;2.80;;
62790;SDS011;48830;53.426;10.300;2023-03-16T02:13:53;6.90;;;3.13;;
62790;SDS011;48830;53.426;10.300;2023-03-16T02:16:23;9.30;;;2.73;;
62790;SDS011;48830;53.426;10.300;2023-03-16T02:18:49;7.80;;;2.83;;
62790;SDS011;48830;53.426;10.300;2023-03-16T02:23:57;7.23;;;3.13;;
62790;SDS011;48830;53.426;10.300;2023-03-16T02:26:28;11.63;;;3.40;;
62790;SDS011;48830;53.426;10.300;2023-03-16T02:31:43;8.87;;;3.10;;
62790;SDS011;48830;53.426;10.300;2023-03-16T02:34:11;7.97;;;2.57;;
62790;SDS011;48830;53.426;10.300;2023-03-16T02:36:38;7.83;;;3.60;;
62790;SDS011;48830;53.426;10.300;2023-03-16T02:39:06;6.27;;;3.10;;
62790;SDS011;48830;53.426;10.300;2023-03-16T02:41:40;7.43;;;3.23;;
62790;SDS011;48830;53.426;10.300;2023-03-16T02:44:19;7.80;;;3.47;;
62790;SDS011;48830;53.426;10.300;2023-03-16T02:46:50;8.83;;;3.60;;
62790;SDS011;48830;53.426;10.300;2023-03-16T02:49:35;8.37;;;3.27;;
62790;SDS011;48830;53.426;10.300;2023-03-16T02:52:04;12.23;;;3.77;;
62790;SDS011;48830;53.426;10.300;2023-03-16T02:54:30;7.23;;;3.30;;
62790;SDS011;48830;53.426;10.300;2023-03-16T02:56:56;9.40;;;3.47;;
62790;SDS011;48830;53.426;10.300;2023-03-16T02:59:23;6.90;;;2.73;;
62790;SDS011;48830;53.426;10.300;2023-03-16T03:01:49;6.27;;;3.00;;
62790;SDS011;48830;53.426;10.300;2023-03-16T03:04:15;11.00;;;3.23;;
62790;SDS011;48830;53.426;10.300;2023-03-16T03:06:41;7.83;;;3.03;;
62790;SDS011;48830;53.426;10.300;2023-03-16T03:09:07;8.17;;;3.20;;
62790;SDS011;48830;53.426;10.300;2023-03-16T03:11:36;7.30;;;3.07;;
62790;SDS011;48830;53.426;10.300;2023-03-16T03:14:02;9.23;;;3.10;;
62790;SDS011;48830;53.426;10.300;2023-03-16T03:16:28;9.10;;;3.70;;
62790;SDS011;48830;53.426;10.300;2023-03-16T03:18:55;7.43;;;3.03;;
62790;SDS011;48830;53.426;10.300;2023-03-16T03:21:20;7.50;;;3.53;;
62790;SDS011;48830;53.426;10.300;2023-03-16T03:23:47;5.17;;;2.47;;
62790;SDS011;48830;53.426;10.300;2023-03-16T03:26:13;5.67;;;2.90;;
62790;SDS011;48830;53.426;10.300;2023-03-16T03:28:40;6.70;;;3.17;;
62790;SDS011;48830;53.426;10.300;2023-03-16T03:31:11;8.70;;;3.23;;
62790;SDS011;48830;53.426;10.300;2023-03-16T03:33:40;7.90;;;3.00;;
62790;SDS011;48830;53.426;10.300;2023-03-16T03:36:06;7.23;;;3.00;;
62790;SDS011;48830;53.426;10.300;2023-03-16T03:38:34;8.40;;;3.10;;
62790;SDS011;48830;53.426;10.300;2023-03-16T03:41:00;7.07;;;2.97;;
62790;SDS011;48830;53.426;10.300;2023-03-16T03:43:30;7.93;;;3.10;;
62790;SDS011;48830;53.426;10.300;2023-03-16T03:45:56;6.90;;;2.80;;
62790;SDS011;48830;53.426;10.300;2023-03-16T03:48:22;7.50;;;3.13;;
62790;SDS011;48830;53.426;10.300;2023-03-16T03:50:48;5.30;;;2.70;;
62790;SDS011;48830;53.426;10.300;2023-03-16T03:53:34;8.50;;;3.67;;
62790;SDS011;48830;53.426;10.300;2023-03-16T03:56:10;7.33;;;2.67;;
62790;SDS011;48830;53.426;10.300;2023-03-16T03:58:36;10.07;;;2.73;;
62790;SDS011;48830;53.426;10.300;2023-03-16T04:01:02;6.70;;;2.70;;
62790;SDS011;48830;53.426;10.300;2023-03-16T04:03:28;7.87;;;2.90;;
62790;SDS011;48830;53.426;10.300;2023-03-16T04:05:54;9.00;;;2.93;;
62790;SDS011;48830;53.426;10.300;2023-03-16T04:08:20;6.63;;;2.83;;
62790;SDS011;48830;53.426;10.300;2023-03-16T04:10:45;9.77;;;3.00;;
62790;SDS011;48830;53.426;10.300;2023-03-16T04:13:11;6.80;;;3.00;;
62790;SDS011;48830;53.426;10.300;2023-03-16T04:15:36;7.33;;;2.90;;
62790;SDS011;48830;53.426;10.300;2023-03-16T04:18:14;8.53;;;2.93;;
62790;SDS011;48830;53.426;10.300;2023-03-16T04:20:41;7.37;;;2.90;;
62790;SDS011;48830;53.426;10.300;2023-03-16T04:23:06;5.17;;;2.97;;
62790;SDS011;48830;53.426;10.300;2023-03-16T04:25:34;8.20;;;3.10;;
62790;SDS011;48830;53.426;10.300;2023-03-16T04:28:03;8.63;;;3.40;;
62790;SDS011;48830;53.426;10.300;2023-03-16T04:30:31;8.97;;;3.30;;
62790;SDS011;48830;53.426;10.300;2023-03-16T04:33:20;9.83;;;3.40;;
62790;SDS011;48830;53.426;10.300;2023-03-16T04:35:46;5.87;;;3.23;;
62790;SDS011;48830;53.426;10.300;2023-03-16T04:38:14;8.27;;;3.10;;
62790;SDS011;48830;53.426;10.300;2023-03-16T04:40:49;8.23;;;3.17;;
62790;SDS011;48830;53.426;10.300;2023-03-16T04:43:18;7.03;;;2.93;;
62790;SDS011;48830;53.426;10.300;2023-03-16T04:45:44;9.10;;;3.13;;
62790;SDS011;48830;53.426;10.300;2023-03-16T04:48:10;6.50;;;2.80;;
62790;SDS011;48830;53.426;10.300;2023-03-16T04:50:36;6.97;;;2.90;;
62790;SDS011;48830;53.426;10.300;2023-03-16T04:53:03;7.17;;;3.20;;
62790;SDS011;48830;53.426;10.300;2023-03-16T04:55:29;7.03;;;3.00;;
62790;SDS011;48830;53.426;10.300;2023-03-16T04:57:55;7.97;;;3.53;;
62790;SDS011;48830;53.426;10.300;2023-03-16T05:00:22;9.50;;;3.00;;
62790;SDS011;48830;53.426;10.300;2023-03-16T05:03:09;10.20;;;3.17;;
62790;SDS011;48830;53.426;10.300;2023-03-16T05:05:38;8.00;;;2.83;;
62790;SDS011;48830;53.426;10.300;2023-03-16T05:08:04;6.63;;;2.97;;
62790;SDS011;48830;53.426;10.300;2023-03-16T05:10:32;7.10;;;3.10;;
62790;SDS011;48830;53.426;10.300;2023-03-16T05:12:58;8.73;;;2.87;;
62790;SDS011;48830;53.426;10.300;2023-03-16T05:15:24;7.17;;;3.20;;
62790;SDS011;48830;53.426;10.300;2023-03-16T05:18:16;7.67;;;2.73;;
62790;SDS011;48830;53.426;10.300;2023-03-16T05:20:41;6.17;;;2.63;;
62790;SDS011;48830;53.426;10.300;2023-03-16T05:23:07;11.10;;;3.30;;
62790;SDS011;48830;53.426;10.300;2023-03-16T05:25:39;8.10;;;3.10;;
62790;SDS011;48830;53.426;10.300;2023-03-16T05:28:07;7.37;;;2.77;;
62790;SDS011;48830;53.426;10.300;2023-03-16T05:30:47;10.07;;;3.20;;
62790;SDS011;48830;53.426;10.300;2023-03-16T05:33:18;9.57;;;3.00;;
62790;SDS011;48830;53.426;10.300;2023-03-16T05:35:49;8.60;;;3.40;;
62790;SDS011;48830;53.426;10.300;2023-03-16T05:38:15;8.60;;;4.30;;
62790;SDS011;48830;53.426;10.300;2023-03-16T05:40:41;9.43;;;4.17;;
62790;SDS011;48830;53.426;10.300;2023-03-16T05:43:18;14.07;;;5.07;;
62790;SDS011;48830;53.426;10.300;2023-03-16T05:45:48;9.20;;;4.03;;
62790;SDS011;48830;53.426;10.300;2023-03-16T05:48:16;6.57;;;2.87;;
62790;SDS011;48830;53.426;10.300;2023-03-16T05:50:45;8.27;;;3.07;;
62790;SDS011;48830;53.426;10.300;2023-03-16T05:53:13;7.67;;;3.20;;
62790;SDS011;48830;53.426;10.300;2023-03-16T05:55:40;10.70;;;3.43;;
62790;SDS011;48830;53.426;10.300;2023-03-16T05:58:09;9.83;;;3.23;;
62790;SDS011;48830;53.426;10.300;2023-03-16T06:00:37;7.93;;;3.00;;
62790;SDS011;48830;53.426;10.300;2023-03-16T06:03:18;8.60;;;3.27;;
62790;SDS011;48830;53.426;10.300;2023-03-16T06:05:43;9.17;;;3.00;;
62790;SDS011;48830;53.426;10.300;2023-03-16T06:08:09;10.17;;;3.43;;
62790;SDS011;48830;53.426;10.300;2023-03-16T06:10:38;9.63;;;2.83;;
62790;SDS011;48830;53.426;10.300;2023-03-16T06:13:03;7.53;;;3.33;;
62790;SDS011;48830;53.426;10.300;2023-03-16T06:15:29;8.30;;;3.47;;
62790;SDS011;48830;53.426;10.300;2023-03-16T06:17:57;8.93;;;2.70;;
62790;SDS011;48830;53.426;10.300;2023-03-16T06:20:22;8.27;;;3.20;;
62790;SDS011;48830;53.426;10.300;2023-03-16T06:22:48;8.50;;;3.40;;
62790;SDS011;48830;53.426;10.300;2023-03-16T06:25:15;7.90;;;3.23;;
62790;SDS011;48830;53.426;10.300;2023-03-16T06:27:43;5.93;;;2.63;;
62790;SDS011;48830;53.426;10.300;2023-03-16T06:30:12;8.13;;;3.60;;
62790;SDS011;48830;53.426;10.300;2023-03-16T06:32:38;9.77;;;3.60;;
62790;SDS011;48830;53.426;10.300;2023-03-16T06:35:06;7.03;;;2.93;;
62790;SDS011;48830;53.426;10.300;2023-03-16T06:37:34;7.40;;;2.90;;
62790;SDS011;48830;53.426;10.300;2023-03-16T06:40:04;10.70;;;4.60;;
62790;SDS011;48830;53.426;10.300;2023-03-16T06:42:30;9.00;;;3.93;;
62790;SDS011;48830;53.426;10.300;2023-03-16T06:44:56;6.87;;;3.47;;
62790;SDS011;48830;53.426;10.300;2023-03-16T06:47:22;7.23;;;2.93;;
62790;SDS011;48830;53.426;10.300;2023-03-16T06:49:48;11.57;;;3.73;;
62790;SDS011;48830;53.426;10.300;2023-03-16T06:52:19;7.87;;;2.87;;
62790;SDS011;48830;53.426;10.300;2023-03-16T06:54:45;7.30;;;3.10;;
62790;SDS011;48830;53.426;10.300;2023-03-16T06:57:11;8.07;;;3.10;;
62790;SDS011;48830;53.426;10.300;2023-03-16T06:59:38;9.73;;;2.77;;
62790;SDS011;48830;53.426;10.300;2023-03-16T07:02:03;9.27;;;2.87;;
62790;SDS011;48830;53.426;10.300;2023-03-16T07:04:30;6.23;;;2.87;;
62790;SDS011;48830;53.426;10.300;2023-03-16T07:06:56;6.33;;;2.70;;
62790;SDS011;48830;53.426;10.300;2023-03-16T07:09:22;7.77;;;2.70;;
62790;SDS011;48830;53.426;10.300;2023-03-16T07:11:48;8.83;;;3.03;;
62790;SDS011;48830;53.426;10.300;2023-03-16T07:14:13;9.03;;;3.20;;
62790;SDS011;48830;53.426;10.300;2023-03-16T07:16:40;6.50;;;2.50;;
62790;SDS011;48830;53.426;10.300;2023-03-16T07:19:07;8.73;;;2.90;;
62790;SDS011;48830;53.426;10.300;2023-03-16T07:21:33;7.60;;;3.07;;
62790;SDS011;48830;53.426;10.300;2023-03-16T07:24:07;8.90;;;3.33;;
62790;SDS011;48830;53.426;10.300;2023-03-16T07:26:36;9.33;;;3.40;;
62790;SDS011;48830;53.426;10.300;2023-03-16T07:29:02;9.13;;;3.00;;
62790;SDS011;48830;53.426;10.300;2023-03-16T07:31:30;9.07;;;3.50;;
62790;SDS011;48830;53.426;10.300;2023-03-16T07:33:58;9.97;;;3.70;;
62790;SDS011;48830;53.426;10.300;2023-03-16T07:36:34;12.63;;;3.53;;
62790;SDS011;48830;53.426;10.300;2023-03-16T07:39:01;7.30;;;3.40;;
62790;SDS011;48830;53.426;10.300;2023-03-16T07:41:26;7.07;;;3.03;;
62790;SDS011;48830;53.426;10.300;2023-03-16T07:43:54;6.47;;;3.10;;
62790;SDS011;48830;53.426;10.300;2023-03-16T07:46:22;7.07;;;3.43;;
62790;SDS011;48830;53.426;10.300;2023-03-16T07:48:49;11.13;;;3.60;;
62790;SDS011;48830;53.426;10.300;2023-03-16T07:51:15;8.17;;;3.33;;
62790;SDS011;48830;53.426;10.300;2023-03-16T07:53:45;8.77;;;3.40;;
62790;SDS011;48830;53.426;10.300;2023-03-16T07:56:22;7.47;;;2.97;;
62790;SDS011;48830;53.426;10.300;2023-03-16T07:58:51;10.13;;;3.13;;
62790;SDS011;48830;53.426;10.300;2023-03-16T08:01:17;8.23;;;3.03;;
62790;SDS011;48830;53.426;10.300;2023-03-16T08:03:42;7.70;;;2.93;;
62790;SDS011;48830;53.426;10.300;2023-03-16T08:06:08;8.00;;;3.37;;
62790;SDS011;48830;53.426;10.300;2023-03-16T08:08:35;8.73;;;3.27;;
62790;SDS011;48830;53.426;10.300;2023-03-16T08:11:00;6.93;;;2.80;;
62790;SDS011;48830;53.426;10.300;2023-03-16T08:13:40;6.30;;;3.30;;
62790;SDS011;48830;53.426;10.300;2023-03-16T08:16:08;6.60;;;2.60;;
62790;SDS011;48830;53.426;10.300;2023-03-16T08:18:37;7.33;;;3.03;;
62790;SDS011;48830;53.426;10.300;2023-03-16T08:21:04;7.57;;;3.10;;
62790;SDS011;48830;53.426;10.300;2023-03-16T08:23:30;8.13;;;3.00;;
62790;SDS011;48830;53.426;10.300;2023-03-16T08:25:57;9.47;;;4.13;;
62790;SDS011;48830;53.426;10.300;2023-03-16T08:28:24;14.97;;;8.60;;
62790;SDS011;48830;53.426;10.300;2023-03-16T08:30:51;8.87;;;3.93;;
62790;SDS011;48830;53.426;10.300;2023-03-16T08:33:28;7.73;;;3.20;;
62790;SDS011;48830;53.426;10.300;2023-03-16T08:35:54;6.07;;;3.07;;
62790;SDS011;48830;53.426;10.300;2023-03-16T08:38:20;6.20;;;2.50;;
62790;SDS011;48830;53.426;10.300;2023-03-16T08:40:47;6.77;;;2.50;;
62790;SDS011;48830;53.426;10.300;2023-03-16T08:43:17;8.10;;;2.90;;
62790;SDS011;48830;53.426;10.300;2023-03-16T08:45:46;7.10;;;2.13;;
62790;SDS011;48830;53.426;10.300;2023-03-16T08:48:14;7.53;;;2.43;;
62790;SDS011;48830;53.426;10.300;2023-03-16T08:50:42;5.13;;;2.40;;
62790;SDS011;48830;53.426;10.300;2023-03-16T08:53:09;7.53;;;2.60;;
62790;SDS011;48830;53.426;10.300;2023-03-16T08:55:36;5.63;;;2.43;;
62790;SDS011;48830;53.426;10.300;2023-03-16T08:58:02;8.30;;;2.30;;
62790;SDS011;48830;53.426;10.300;2023-03-16T09:00:27;8.93;;;2.43;;
62790;SDS011;48830;53.426;10.300;2023-03-16T09:02:53;4.80;;;2.20;;
62790;SDS011;48830;53.426;10.300;2023-03-16T09:05:20;7.17;;;2.50;;
62790;SDS011;48830;53.426;10.300;2023-03-16T09:07:46;6.80;;;2.30;;
62790;SDS011;48830;53.426;10.300;2023-03-16T09:10:11;6.33;;;2.10;;
62790;SDS011;48830;53.426;10.300;2023-03-16T09:12:40;5.43;;;2.10;;
62790;SDS011;48830;53.426;10.300;2023-03-16T09:15:07;7.00;;;2.33;;
62790;SDS011;48830;53.426;10.300;2023-03-16T09:17:34;5.93;;;2.00;;
62790;SDS011;48830;53.426;10.300;2023-03-16T09:20:00;3.85;;;1.88;;
62790;SDS011;48830;53.426;10.300;2023-03-16T09:22:27;5.60;;;2.05;;
62790;SDS011;48830;53.426;10.300;2023-03-16T09:24:52;5.28;;;2.05;;
62790;SDS011;48830;53.426;10.300;2023-03-16T09:27:18;5.43;;;2.35;;
62790;SDS011;48830;53.426;10.300;2023-03-16T09:29:44;5.10;;;2.10;;
62790;SDS011;48830;53.426;10.300;2023-03-16T09:32:10;6.10;;;1.98;;
62790;SDS011;48830;53.426;10.300;2023-03-16T09:34:38;5.45;;;1.90;;
62790;SDS011;48830;53.426;10.300;2023-03-16T09:37:03;4.15;;;1.75;;
62790;SDS011;48830;53.426;10.300;2023-03-16T09:39:29;4.70;;;1.70;;
62790;SDS011;48830;53.426;10.300;2023-03-16T09:42:02;6.75;;;2.20;;
62790;SDS011;48830;53.426;10.300;2023-03-16T09:47:04;5.05;;;1.92;;
62790;SDS011;48830;53.426;10.300;2023-03-16T09:49:35;6.00;;;1.95;;
62790;SDS011;48830;53.426;10.300;2023-03-16T09:52:14;5.65;;;1.70;;
62790;SDS011;48830;53.426;10.300;2023-03-16T09:54:56;6.03;;;1.85;;
62790;SDS011;48830;53.426;10.300;2023-03-16T09:57:29;4.57;;;1.80;;
62790;SDS011;48830;53.426;10.300;2023-03-16T10:00:02;2.83;;;1.90;;
62790;SDS011;48830;53.426;10.300;2023-03-16T10:05:40;5.22;;;1.80;;
62790;SDS011;48830;53.426;10.300;2023-03-16T10:16:18;7.28;;;2.00;;
62790;SDS011;48830;53.426;10.300;2023-03-16T10:18:58;4.20;;;1.80;;
62790;SDS011;48830;53.426;10.300;2023-03-16T10:21:26;4.97;;;2.08;;
62790;SDS011;48830;53.426;10.300;2023-03-16T10:23:55;5.10;;;1.95;;
62790;SDS011;48830;53.426;10.300;2023-03-16T10:26:29;4.07;;;1.52;;
62790;SDS011;48830;53.426;10.300;2023-03-16T10:28:59;5.00;;;1.77;;
62790;SDS011;48830;53.426;10.300;2023-03-16T10:31:25;5.70;;;1.80;;
62790;SDS011;48830;53.426;10.300;2023-03-16T10:33:54;5.32;;;1.75;;
62790;SDS011;48830;53.426;10.300;2023-03-16T10:36:30;5.63;;;1.88;;
62790;SDS011;48830;53.426;10.300;2023-03-16T10:38:59;4.70;;;1.88;;
62790;SDS011;48830;53.426;10.300;2023-03-16T10:41:29;5.97;;;1.50;;
62790;SDS011;48830;53.426;10.300;2023-03-16T10:43:58;2.95;;;1.33;;
62790;SDS011;48830;53.426;10.300;2023-03-16T10:46:39;3.10;;;1.23;;
62790;SDS011;48830;53.426;10.300;2023-03-16T10:49:22;5.28;;;1.30;;
62790;SDS011;48830;53.426;10.300;2023-03-16T10:51:56;1.90;;;1.00;;
62790;SDS011;48830;53.426;10.300;2023-03-16T10:54:28;4.70;;;1.35;;
62790;SDS011;48830;53.426;10.300;2023-03-16T10:56:57;4.32;;;1.48;;
62790;SDS011;48830;53.426;10.300;2023-03-16T10:59:31;3.63;;;1.30;;
62790;SDS011;48830;53.426;10.300;2023-03-16T11:02:21;2.33;;;1.10;;
62790;SDS011;48830;53.426;10.300;2023-03-16T11:04:48;3.58;;;1.40;;
62790;SDS011;48830;53.426;10.300;2023-03-16T11:07:17;1.85;;;1.08;;
62790;SDS011;48830;53.426;10.300;2023-03-16T11:09:44;4.20;;;1.45;;
62790;SDS011;48830;53.426;10.300;2023-03-16T11:12:20;4.60;;;1.30;;
62790;SDS011;48830;53.426;10.300;2023-03-16T11:14:48;2.47;;;1.52;;
62790;SDS011;48830;53.426;10.300;2023-03-16T11:17:18;2.22;;;1.10;;
62790;SDS011;48830;53.426;10.300;2023-03-16T11:19:53;2.53;;;1.10;;
62790;SDS011;48830;53.426;10.300;2023-03-16T11:22:23;3.08;;;1.13;;
62790;SDS011;48830;53.426;10.300;2023-03-16T11:25:03;2.95;;;1.30;;
62790;SDS011;48830;53.426;10.300;2023-03-16T11:27:42;1.77;;;1.05;;
62790;SDS011;48830;53.426;10.300;2023-03-16T11:32:42;2.83;;;1.20;;
62790;SDS011;48830;53.426;10.300;2023-03-16T11:38:09;2.88;;;1.10;;
62790;SDS011;48830;53.426;10.300;2023-03-16T11:57:25;2.65;;;1.20;;
62790;SDS011;48830;53.426;10.300;2023-03-16T12:11:09;2.67;;;1.10;;
62790;SDS011;48830;53.426;10.300;2023-03-16T12:13:54;2.45;;;1.10;;
62790;SDS011;48830;53.426;10.300;2023-03-16T12:19:00;4.78;;;1.20;;
62790;SDS011;48830;53.426;10.300;2023-03-16T12:21:29;1.60;;;1.00;;
62790;SDS011;48830;53.426;10.300;2023-03-16T12:23:59;3.00;;;1.17;;
62790;SDS011;48830;53.426;10.300;2023-03-16T12:26:28;1.85;;;1.13;;
62790;SDS011;48830;53.426;10.300;2023-03-16T12:31:58;2.45;;;1.00;;
62790;SDS011;48830;53.426;10.300;2023-03-16T12:37:26;2.30;;;1.15;;
62790;SDS011;48830;53.426;10.300;2023-03-16T12:43:07;2.67;;;1.20;;
62790;SDS011;48830;53.426;10.300;2023-03-16T12:46:05;3.47;;;1.40;;
62790;SDS011;48830;53.426;10.300;2023-03-16T12:48:37;3.40;;;1.38;;
62790;SDS011;48830;53.426;10.300;2023-03-16T12:51:08;5.07;;;1.58;;
62790;SDS011;48830;53.426;10.300;2023-03-16T12:56:16;1.30;;;1.08;;
62790;SDS011;48830;53.426;10.300;2023-03-16T12:59:03;2.63;;;1.38;;
62790;SDS011;48830;53.426;10.300;2023-03-16T13:01:41;2.20;;;1.35;;
62790;SDS011;48830;53.426;10.300;2023-03-16T13:06:44;1.90;;;1.00;;
62790;SDS011;48830;53.426;10.300;2023-03-16T13:09:16;6.32;;;2.65;;
62790;SDS011;48830;53.426;10.300;2023-03-16T13:11:45;4.47;;;1.17;;
62790;SDS011;48830;53.426;10.300;2023-03-16T13:19:40;4.63;;;1.10;;
62790;SDS011;48830;53.426;10.300;2023-03-16T13:22:24;1.15;;;1.02;;
62790;SDS011;48830;53.426;10.300;2023-03-16T13:24:58;2.97;;;1.38;;
62790;SDS011;48830;53.426;10.300;2023-03-16T13:27:29;1.73;;;1.00;;
62790;SDS011;48830;53.426;10.300;2023-03-16T13:29:59;6.80;;;1.25;;
62790;SDS011;48830;53.426;10.300;2023-03-16T13:32:39;4.28;;;1.30;;
62790;SDS011;48830;53.426;10.300;2023-03-16T13:35:06;2.13;;;1.00;;
62790;SDS011;48830;53.426;10.300;2023-03-16T13:37:36;1.77;;;0.90;;
62790;SDS011;48830;53.426;10.300;2023-03-16T13:40:15;3.20;;;1.10;;
62790;SDS011;48830;53.426;10.300;2023-03-16T13:42:45;2.40;;;1.02;;
62790;SDS011;48830;53.426;10.300;2023-03-16T13:45:17;1.75;;;1.08;;
62790;SDS011;48830;53.426;10.300;2023-03-16T13:47:46;2.80;;;1.10;;
62790;SDS011;48830;53.426;10.300;2023-03-16T13:50:12;2.50;;;1.77;;
62790;SDS011;48830;53.426;10.300;2023-03-16T13:52:38;2.10;;;1.10;;
62790;SDS011;48830;53.426;10.300;2023-03-16T13:55:09;2.45;;;1.38;;
62790;SDS011;48830;53.426;10.300;2023-03-16T13:57:40;2.22;;;1.30;;
62790;SDS011;48830;53.426;10.300;2023-03-16T14:00:15;2.38;;;1.15;;
62790;SDS011;48830;53.426;10.300;2023-03-16T14:02:45;1.75;;;1.10;;
62790;SDS011;48830;53.426;10.300;2023-03-16T14:05:17;2.30;;;1.20;;
62790;SDS011;48830;53.426;10.300;2023-03-16T14:07:45;2.33;;;1.10;;
62790;SDS011;48830;53.426;10.300;2023-03-16T14:10:12;3.83;;;1.50;;
62790;SDS011;48830;53.426;10.300;2023-03-16T14:12:56;3.30;;;1.17;;
62790;SDS011;48830;53.426;10.300;2023-03-16T14:15:31;2.70;;;1.25;;
62790;SDS011;48830;53.426;10.300;2023-03-16T14:18:12;4.25;;;1.08;;
62790;SDS011;48830;53.426;10.300;2023-03-16T14:20:40;3.78;;;1.55;;
62790;SDS011;48830;53.426;10.300;2023-03-16T14:23:15;2.80;;;1.02;;
62790;SDS011;48830;53.426;10.300;2023-03-16T14:25:43;1.88;;;1.08;;
62790;SDS011;48830;53.426;10.300;2023-03-16T14:28:12;2.08;;;1.05;;
62790;SDS011;48830;53.426;10.300;2023-03-16T14:30:48;3.45;;;1.35;;
62790;SDS011;48830;53.426;10.300;2023-03-16T14:33:48;3.15;;;1.20;;
62790;SDS011;48830;53.426;10.300;2023-03-16T14:36:17;2.70;;;1.30;;
62790;SDS011;48830;53.426;10.300;2023-03-16T14:38:44;5.50;;;1.15;;
62790;SDS011;48830;53.426;10.300;2023-03-16T14:41:19;2.90;;;1.20;;
62790;SDS011;48830;53.426;10.300;2023-03-16T14:43:52;2.75;;;1.20;;
62790;SDS011;48830;53.426;10.300;2023-03-16T14:49:24;2.75;;;1.17;;
62790;SDS011;48830;53.426;10.300;2023-03-16T14:52:00;2.45;;;0.90;;
62790;SDS011;48830;53.426;10.300;2023-03-16T14:54:29;2.85;;;1.30;;
62790;SDS011;48830;53.426;10.300;2023-03-16T14:56:58;3.22;;;1.17;;
62790;SDS011;48830;53.426;10.300;2023-03-16T14:59:26;3.47;;;1.20;;
62790;SDS011;48830;53.426;10.300;2023-03-16T15:01:51;2.17;;;1.10;;
62790;SDS011;48830;53.426;10.300;2023-03-16T15:04:21;4.35;;;1.10;;
62790;SDS011;48830;53.426;10.300;2023-03-16T15:06:52;3.25;;;1.30;;
62790;SDS011;48830;53.426;10.300;2023-03-16T15:09:32;4.15;;;1.50;;
62790;SDS011;48830;53.426;10.300;2023-03-16T15:12:02;1.83;;;1.13;;
62790;SDS011;48830;53.426;10.300;2023-03-16T15:14:27;2.40;;;1.10;;
62790;SDS011;48830;53.426;10.300;2023-03-16T15:17:11;3.45;;;1.20;;
62790;SDS011;48830;53.426;10.300;2023-03-16T15:19:36;3.72;;;1.10;;
62790;SDS011;48830;53.426;10.300;2023-03-16T15:22:02;2.67;;;1.20;;
62790;SDS011;48830;53.426;10.300;2023-03-16T15:24:28;1.80;;;1.10;;
62790;SDS011;48830;53.426;10.300;2023-03-16T15:26:56;2.03;;;0.90;;
62790;SDS011;48830;53.426;10.300;2023-03-16T15:29:22;5.47;;;1.20;;
62790;SDS011;48830;53.426;10.300;2023-03-16T15:31:47;2.97;;;1.00;;
62790;SDS011;48830;53.426;10.300;2023-03-16T15:34:13;3.13;;;1.30;;
62790;SDS011;48830;53.426;10.300;2023-03-16T15:36:38;4.13;;;0.93;;
62790;SDS011;48830;53.426;10.300;2023-03-16T15:39:04;3.90;;;1.27;;
62790;SDS011;48830;53.426;10.300;2023-03-16T15:41:30;3.10;;;1.20;;
62790;SDS011;48830;53.426;10.300;2023-03-16T15:43:55;5.00;;;1.10;;
62790;SDS011;48830;53.426;10.300;2023-03-16T15:46:25;4.40;;;1.13;;
62790;SDS011;48830;53.426;10.300;2023-03-16T15:48:52;5.97;;;1.20;;
62790;SDS011;48830;53.426;10.300;2023-03-16T15:51:22;2.30;;;1.20;;
62790;SDS011;48830;53.426;10.300;2023-03-16T15:54:01;2.83;;;1.10;;
62790;SDS011;48830;53.426;10.300;2023-03-16T15:56:30;1.98;;;1.00;;
62790;SDS011;48830;53.426;10.300;2023-03-16T15:59:00;1.40;;;0.90;;
62790;SDS011;48830;53.426;10.300;2023-03-16T16:01:29;2.93;;;1.13;;
62790;SDS011;48830;53.426;10.300;2023-03-16T16:03:58;2.57;;;0.90;;
62790;SDS011;48830;53.426;10.300;2023-03-16T16:06:24;1.77;;;1.10;;
62790;SDS011;48830;53.426;10.300;2023-03-16T16:08:51;2.70;;;1.30;;